Time;durP1;ratioP1;P1;durP2;ratioP2;P2;SDS_P1;SDS_P2;PMS_P1;PMS_P2;Temp;Humidity;BMP_temperature;BMP_pressure;BME280_temperature;BME280_humidity;BME280_pressure;Samples;Min_cycle;Max_cycle;Signal;HPM_P1;HPM_P2
2022/09/22 00:00:24;;;;;;;12.30;6.53;;;;;;;;;;5038030;28;20052;-72
2022/09/22 00:02:50;;;;;;;11.95;7.90;;;;;;;;;;5018668;28;20102;-72
2022/09/22 00:05:16;;;;;;;20.02;9.25;;;;;;;;;;5040147;28;20037;-73
2022/09/22 00:07:42;;;;;;;17.15;9.77;;;;;;;;;;5027077;28;20379;-72
2022/09/22 00:10:08;;;;;;;20.50;10.48;;;;;;;;;;5034495;28;20026;-74
2022/09/22 00:12:35;;;;;;;15.98;9.57;;;;;;;;;;5029415;28;20134;-73
2022/09/22 00:15:03;;;;;;;16.75;9.10;;;;;;;;;;5028766;28;20176;-73
2022/09/22 00:17:30;;;;;;;17.75;8.60;;;;;;;;;;5041933;28;20037;-74
2022/09/22 00:19:56;;;;;;;16.73;9.50;;;;;;;;;;5043228;28;20033;-74
2022/09/22 00:22:23;;;;;;;18.20;8.98;;;;;;;;;;5044467;28;20113;-74
2022/09/22 00:24:49;;;;;;;17.08;8.85;;;;;;;;;;5041813;28;20579;-74
2022/09/22 00:27:15;;;;;;;16.40;9.35;;;;;;;;;;5036108;28;20065;-73
2022/09/22 00:29:42;;;;;;;17.45;9.65;;;;;;;;;;5045117;28;20092;-73
2022/09/22 00:32:08;;;;;;;22.35;10.30;;;;;;;;;;5044664;28;20021;-73
2022/09/22 00:34:34;;;;;;;20.88;10.63;;;;;;;;;;5029342;28;20029;-74
2022/09/22 00:37:00;;;;;;;17.27;9.65;;;;;;;;;;5030695;28;20026;-73
2022/09/22 00:39:29;;;;;;;17.80;10.13;;;;;;;;;;5035954;28;20037;-74
2022/09/22 00:41:55;;;;;;;17.58;9.15;;;;;;;;;;5036768;28;20029;-73
2022/09/22 00:44:30;;;;;;;19.60;9.68;;;;;;;;;;5044339;28;20036;-74
2022/09/22 00:47:16;;;;;;;17.95;9.85;;;;;;;;;;5039122;28;20461;-73
2022/09/22 00:49:45;;;;;;;13.25;8.75;;;;;;;;;;5030646;28;20486;-74
2022/09/22 00:52:13;;;;;;;13.38;9.43;;;;;;;;;;5042568;28;20025;-73
2022/09/22 00:54:39;;;;;;;17.35;9.88;;;;;;;;;;5046038;28;20539;-73
2022/09/22 00:57:09;;;;;;;19.45;9.70;;;;;;;;;;5032999;28;20027;-74
2022/09/22 00:59:36;;;;;;;16.97;9.83;;;;;;;;;;5030736;28;20033;-73
2022/09/22 01:02:02;;;;;;;15.80;9.32;;;;;;;;;;5039529;28;20045;-74
2022/09/22 01:04:28;;;;;;;15.45;8.82;;;;;;;;;;5046176;28;20044;-73
2022/09/22 01:06:55;;;;;;;19.45;8.98;;;;;;;;;;5027427;28;20033;-73
2022/09/22 01:09:21;;;;;;;16.10;9.23;;;;;;;;;;5028878;28;20064;-73
2022/09/22 01:11:47;;;;;;;14.48;9.18;;;;;;;;;;5020378;28;20039;-73
2022/09/22 01:14:13;;;;;;;14.90;9.43;;;;;;;;;;5033758;28;20033;-72
2022/09/22 01:16:45;;;;;;;17.55;10.52;;;;;;;;;;5032725;28;20048;-73
2022/09/22 01:19:37;;;;;;;17.95;11.05;;;;;;;;;;5044039;28;20025;-72
2022/09/22 01:22:06;;;;;;;20.13;11.55;;;;;;;;;;5044901;28;20305;-73
2022/09/22 01:24:44;;;;;;;18.65;11.77;;;;;;;;;;5050168;28;20028;-74
2022/09/22 01:27:16;;;;;;;19.58;11.75;;;;;;;;;;5040074;28;20036;-73
2022/09/22 01:30:01;;;;;;;19.02;11.93;;;;;;;;;;5036331;28;20052;-74
2022/09/22 01:32:30;;;;;;;21.52;13.55;;;;;;;;;;5049161;28;20029;-73
2022/09/22 01:35:05;;;;;;;24.35;14.57;;;;;;;;;;5032074;28;20099;-73
2022/09/22 01:37:43;;;;;;;26.27;14.77;;;;;;;;;;5046715;28;20078;-73
2022/09/22 01:40:14;;;;;;;24.13;15.65;;;;;;;;;;5032324;28;20477;-73
2022/09/22 01:42:43;;;;;;;27.75;16.20;;;;;;;;;;5048170;28;20175;-73
2022/09/22 01:45:15;;;;;;;24.45;16.55;;;;;;;;;;5030349;28;20136;-73
2022/09/22 01:47:43;;;;;;;25.80;16.70;;;;;;;;;;5049057;28;20096;-73
2022/09/22 01:50:18;;;;;;;31.40;16.92;;;;;;;;;;5046202;28;20029;-73
2022/09/22 01:52:44;;;;;;;27.15;14.82;;;;;;;;;;5052741;28;20418;-74
2022/09/22 01:55:17;;;;;;;25.38;16.67;;;;;;;;;;5040398;28;20029;-74
2022/09/22 01:57:43;;;;;;;27.30;16.80;;;;;;;;;;5039544;28;20026;-73
2022/09/22 02:00:10;;;;;;;26.35;17.23;;;;;;;;;;5047793;28;20031;-73
2022/09/22 02:02:44;;;;;;;31.83;18.38;;;;;;;;;;5045934;28;20037;-74
2022/09/22 02:05:14;;;;;;;35.72;19.38;;;;;;;;;;5031699;28;20488;-73
2022/09/22 02:07:41;;;;;;;27.25;18.00;;;;;;;;;;5032642;28;20036;-74
2022/09/22 02:10:10;;;;;;;30.27;16.90;;;;;;;;;;5041525;28;20033;-74
2022/09/22 02:12:36;;;;;;;30.38;17.45;;;;;;;;;;5022578;28;20672;-74
2022/09/22 02:15:03;;;;;;;24.38;14.63;;;;;;;;;;5039745;28;20504;-74
2022/09/22 02:17:29;;;;;;;32.42;15.20;;;;;;;;;;5041527;28;20561;-74
2022/09/22 02:19:55;;;;;;;30.75;15.48;;;;;;;;;;5044226;28;20032;-73
2022/09/22 02:22:21;;;;;;;25.88;13.80;;;;;;;;;;5050242;28;20573;-73
2022/09/22 02:24:47;;;;;;;22.00;13.25;;;;;;;;;;5033721;28;20029;-73
2022/09/22 02:27:24;;;;;;;27.33;13.77;;;;;;;;;;5041994;28;20025;-73
2022/09/22 02:29:52;;;;;;;27.67;14.93;;;;;;;;;;5012162;28;20490;-73
2022/09/22 02:32:18;;;;;;;28.88;15.38;;;;;;;;;;5030837;28;20064;-73
2022/09/22 02:34:45;;;;;;;25.80;13.50;;;;;;;;;;5031275;28;20187;-73
2022/09/22 02:37:19;;;;;;;27.73;14.27;;;;;;;;;;5033391;28;20029;-72
2022/09/22 02:39:50;;;;;;;28.30;13.77;;;;;;;;;;5034215;28;20025;-72
2022/09/22 02:42:30;;;;;;;23.90;13.68;;;;;;;;;;5049452;28;20106;-73
2022/09/22 02:45:06;;;;;;;20.98;13.65;;;;;;;;;;5034712;28;20023;-74
2022/09/22 02:47:58;;;;;;;21.95;13.43;;;;;;;;;;5044762;28;20072;-74
2022/09/22 02:50:25;;;;;;;22.10;13.93;;;;;;;;;;5042748;28;20040;-73
2022/09/22 02:52:53;;;;;;;25.77;14.50;;;;;;;;;;5041379;28;20060;-73
2022/09/22 02:55:19;;;;;;;25.42;14.35;;;;;;;;;;5034327;28;20133;-74
2022/09/22 02:57:45;;;;;;;26.33;14.65;;;;;;;;;;5037261;28;20406;-74
2022/09/22 03:00:11;;;;;;;23.17;14.55;;;;;;;;;;5029492;28;20034;-73
2022/09/22 03:02:37;;;;;;;26.80;16.00;;;;;;;;;;5043795;28;20107;-73
2022/09/22 03:05:04;;;;;;;27.15;15.73;;;;;;;;;;5034948;28;20136;-74
2022/09/22 03:07:30;;;;;;;31.80;16.40;;;;;;;;;;5034055;28;20052;-74
2022/09/22 03:09:56;;;;;;;23.15;14.88;;;;;;;;;;5030733;28;20402;-74
2022/09/22 03:12:22;;;;;;;26.33;14.57;;;;;;;;;;5048346;28;20087;-74
2022/09/22 03:14:49;;;;;;;27.23;15.45;;;;;;;;;;5034640;28;20029;-74
2022/09/22 03:17:15;;;;;;;27.98;16.95;;;;;;;;;;5037760;28;20156;-74
2022/09/22 03:19:41;;;;;;;33.40;18.77;;;;;;;;;;5043602;28;20346;-74
2022/09/22 03:22:07;;;;;;;33.83;18.60;;;;;;;;;;5043250;28;20033;-74
2022/09/22 03:24:33;;;;;;;35.42;19.80;;;;;;;;;;5030424;28;20049;-73
2022/09/22 03:26:59;;;;;;;34.08;19.65;;;;;;;;;;5030826;28;20029;-73
2022/09/22 03:29:25;;;;;;;37.15;20.38;;;;;;;;;;5046442;28;20472;-73
2022/09/22 03:31:51;;;;;;;39.22;21.20;;;;;;;;;;5043213;28;20033;-73
2022/09/22 03:34:17;;;;;;;34.08;19.98;;;;;;;;;;5029609;28;20034;-74
2022/09/22 03:36:43;;;;;;;37.08;19.27;;;;;;;;;;5044010;28;20040;-74
2022/09/22 03:39:09;;;;;;;29.60;18.95;;;;;;;;;;5035325;28;20032;-73
2022/09/22 03:41:36;;;;;;;32.08;19.60;;;;;;;;;;5041677;28;20476;-73
2022/09/22 03:44:03;;;;;;;31.67;18.65;;;;;;;;;;5041428;28;20065;-73
2022/09/22 03:46:29;;;;;;;34.08;18.92;;;;;;;;;;5039133;28;20081;-73
2022/09/22 03:48:55;;;;;;;31.48;17.92;;;;;;;;;;5043787;28;20123;-73
2022/09/22 03:51:21;;;;;;;35.03;18.45;;;;;;;;;;5024995;28;20029;-73
2022/09/22 03:53:48;;;;;;;40.88;19.70;;;;;;;;;;5020380;28;20038;-73
2022/09/22 03:56:14;;;;;;;31.08;18.30;;;;;;;;;;5022708;28;20032;-73
2022/09/22 03:58:41;;;;;;;37.13;19.63;;;;;;;;;;5024661;28;20065;-73
2022/09/22 04:01:10;;;;;;;32.13;19.05;;;;;;;;;;5022552;28;20045;-73
2022/09/22 04:03:36;;;;;;;35.28;19.60;;;;;;;;;;5024140;28;20124;-73
2022/09/22 04:06:02;;;;;;;43.67;20.40;;;;;;;;;;5034257;28;20065;-73
2022/09/22 04:08:28;;;;;;;39.20;18.83;;;;;;;;;;5035525;28;20113;-73
2022/09/22 04:10:56;;;;;;;34.58;18.50;;;;;;;;;;5029162;28;20061;-73
2022/09/22 04:13:22;;;;;;;34.65;18.20;;;;;;;;;;5022271;28;20017;-74
2022/09/22 04:15:48;;;;;;;35.15;17.90;;;;;;;;;;5024435;28;20079;-73
2022/09/22 04:18:14;;;;;;;41.13;19.25;;;;;;;;;;5021880;28;20029;-73
2022/09/22 04:20:42;;;;;;;34.47;19.02;;;;;;;;;;5024242;28;20048;-73
2022/09/22 04:23:08;;;;;;;36.47;19.88;;;;;;;;;;5033244;28;20033;-73
2022/09/22 04:25:34;;;;;;;37.90;19.00;;;;;;;;;;5046276;28;20036;-73
2022/09/22 04:28:00;;;;;;;37.15;20.20;;;;;;;;;;5045388;28;20045;-73
2022/09/22 04:30:26;;;;;;;38.60;20.13;;;;;;;;;;5046075;28;20117;-72
2022/09/22 04:32:52;;;;;;;37.03;19.25;;;;;;;;;;5031289;28;20124;-73
2022/09/22 04:35:18;;;;;;;38.53;19.40;;;;;;;;;;5021501;28;20030;-73
2022/09/22 04:37:44;;;;;;;42.25;19.00;;;;;;;;;;5023127;28;20606;-73
2022/09/22 04:40:11;;;;;;;43.65;20.85;;;;;;;;;;5028308;28;20041;-73
2022/09/22 04:42:37;;;;;;;33.33;18.25;;;;;;;;;;5049890;28;20029;-73
2022/09/22 04:45:05;;;;;;;35.90;19.45;;;;;;;;;;5045267;28;20544;-73
2022/09/22 04:47:32;;;;;;;52.35;23.25;;;;;;;;;;5034284;28;20140;-73
2022/09/22 04:49:58;;;;;;;86.13;22.15;;;;;;;;;;5023924;28;20033;-75
2022/09/22 04:52:24;;;;;;;39.55;20.83;;;;;;;;;;5030953;28;20060;-75
2022/09/22 04:54:50;;;;;;;38.80;21.48;;;;;;;;;;5042081;28;20490;-73
2022/09/22 04:57:16;;;;;;;42.85;21.92;;;;;;;;;;5029860;28;20493;-73
2022/09/22 04:59:42;;;;;;;49.10;21.75;;;;;;;;;;5031365;28;20036;-73
2022/09/22 05:02:09;;;;;;;44.40;22.67;;;;;;;;;;5021874;28;20034;-73
2022/09/22 05:04:35;;;;;;;53.88;22.98;;;;;;;;;;5021638;28;20140;-73
2022/09/22 05:07:01;;;;;;;45.00;23.95;;;;;;;;;;5024953;28;20037;-73
2022/09/22 05:09:27;;;;;;;46.90;21.83;;;;;;;;;;5023989;28;20305;-73
2022/09/22 05:11:59;;;;;;;47.42;23.20;;;;;;;;;;5019953;28;20022;-73
2022/09/22 05:14:25;;;;;;;47.13;22.83;;;;;;;;;;5024176;28;20014;-73
2022/09/22 05:16:51;;;;;;;46.15;22.48;;;;;;;;;;5022850;28;20038;-74
2022/09/22 05:19:17;;;;;;;45.83;21.60;;;;;;;;;;5013150;28;20041;-71
2022/09/22 05:21:43;;;;;;;44.30;22.90;;;;;;;;;;4994454;28;20132;-75
2022/09/22 05:24:10;;;;;;;50.28;25.10;;;;;;;;;;5009668;28;20914;-74
2022/09/22 05:26:36;;;;;;;52.67;23.77;;;;;;;;;;5020240;28;20025;-72
2022/09/22 05:29:03;;;;;;;46.40;22.55;;;;;;;;;;5017715;28;20037;-72
2022/09/22 05:31:29;;;;;;;48.08;24.67;;;;;;;;;;5013121;28;20025;-73
2022/09/22 05:33:55;;;;;;;48.22;23.55;;;;;;;;;;5014166;28;20044;-73
2022/09/22 05:36:21;;;;;;;48.90;22.90;;;;;;;;;;5020123;28;20170;-73
2022/09/22 05:38:47;;;;;;;54.90;25.75;;;;;;;;;;5016724;28;20076;-72
2022/09/22 05:41:13;;;;;;;50.70;23.67;;;;;;;;;;5033649;28;20029;-72
2022/09/22 05:43:39;;;;;;;46.05;22.58;;;;;;;;;;5017202;28;20096;-73
2022/09/22 05:46:05;;;;;;;62.45;26.10;;;;;;;;;;5016241;28;20146;-72
2022/09/22 05:48:31;;;;;;;47.17;23.52;;;;;;;;;;5017551;28;20041;-73
2022/09/22 05:50:57;;;;;;;45.03;23.40;;;;;;;;;;5016665;28;20205;-73
2022/09/22 05:53:23;;;;;;;42.58;22.65;;;;;;;;;;5017627;28;20049;-73
2022/09/22 05:55:49;;;;;;;40.90;21.88;;;;;;;;;;5014215;28;20034;-73
2022/09/22 05:58:15;;;;;;;36.95;21.63;;;;;;;;;;5018049;28;20463;-73
2022/09/22 06:00:41;;;;;;;42.33;23.38;;;;;;;;;;5012079;28;20029;-71
2022/09/22 06:03:07;;;;;;;44.28;24.90;;;;;;;;;;5018070;28;20026;-71
2022/09/22 06:05:33;;;;;;;43.33;23.02;;;;;;;;;;5016490;28;20045;-71
2022/09/22 06:08:02;;;;;;;44.33;22.52;;;;;;;;;;5019428;28;20099;-71
2022/09/22 06:10:29;;;;;;;42.58;22.88;;;;;;;;;;5018870;28;20516;-71
2022/09/22 06:13:01;;;;;;;42.65;22.63;;;;;;;;;;5018187;28;20144;-72
2022/09/22 06:15:28;;;;;;;49.22;23.73;;;;;;;;;;5027290;28;20033;-73
2022/09/22 06:17:55;;;;;;;45.30;22.30;;;;;;;;;;5023429;28;20040;-72
2022/09/22 06:20:21;;;;;;;42.97;25.85;;;;;;;;;;5023593;28;20180;-72
2022/09/22 06:22:47;;;;;;;53.35;27.00;;;;;;;;;;5023298;28;20600;-72
2022/09/22 06:25:14;;;;;;;51.63;26.27;;;;;;;;;;5026025;28;20513;-73
2022/09/22 06:27:40;;;;;;;44.20;24.95;;;;;;;;;;5022752;28;20213;-72
2022/09/22 06:30:09;;;;;;;53.88;26.30;;;;;;;;;;5023799;28;20071;-72
2022/09/22 06:32:38;;;;;;;53.15;26.70;;;;;;;;;;5024658;28;20620;-72
2022/09/22 06:35:04;;;;;;;42.15;24.90;;;;;;;;;;5024357;28;20080;-73
2022/09/22 06:37:31;;;;;;;49.90;25.00;;;;;;;;;;5025935;28;20030;-71
2022/09/22 06:39:57;;;;;;;41.20;26.67;;;;;;;;;;5024764;28;20030;-71
2022/09/22 06:42:23;;;;;;;48.35;27.25;;;;;;;;;;5022077;28;20414;-71
2022/09/22 06:44:49;;;;;;;47.20;26.08;;;;;;;;;;5021640;28;20042;-72
2022/09/22 06:47:15;;;;;;;44.30;25.90;;;;;;;;;;5021454;28;20041;-71
2022/09/22 06:49:41;;;;;;;38.90;23.88;;;;;;;;;;5021706;28;20493;-72
2022/09/22 06:52:12;;;;;;;44.90;23.25;;;;;;;;;;5027993;28;20082;-72
2022/09/22 06:54:40;;;;;;;34.65;23.48;;;;;;;;;;5023629;28;20037;-72
2022/09/22 06:57:07;;;;;;;36.38;21.90;;;;;;;;;;5017735;28;20065;-72
2022/09/22 06:59:36;;;;;;;37.80;23.13;;;;;;;;;;5021718;28;20021;-71
2022/09/22 07:02:03;;;;;;;41.67;23.65;;;;;;;;;;5024273;28;20037;-72
2022/09/22 07:04:29;;;;;;;43.95;25.10;;;;;;;;;;5023424;28;20079;-72
2022/09/22 07:06:55;;;;;;;39.42;25.27;;;;;;;;;;5022049;28;20198;-72
2022/09/22 07:09:21;;;;;;;44.03;28.90;;;;;;;;;;5026166;28;20173;-72
2022/09/22 07:11:47;;;;;;;42.78;30.23;;;;;;;;;;5022286;28;20040;-72
2022/09/22 07:14:14;;;;;;;48.47;29.55;;;;;;;;;;5022654;28;20434;-72
2022/09/22 07:16:40;;;;;;;41.50;30.13;;;;;;;;;;5023164;28;20018;-72
2022/09/22 07:19:06;;;;;;;42.72;28.60;;;;;;;;;;5023331;28;20041;-72
2022/09/22 07:21:36;;;;;;;44.30;29.05;;;;;;;;;;5019342;28;20021;-72
2022/09/22 07:24:02;;;;;;;42.10;27.88;;;;;;;;;;5021468;28;20064;-72
2022/09/22 07:26:32;;;;;;;38.30;26.20;;;;;;;;;;5026029;28;20454;-72
2022/09/22 07:29:00;;;;;;;39.50;27.05;;;;;;;;;;5022029;28;20520;-73
2022/09/22 07:31:28;;;;;;;37.22;26.38;;;;;;;;;;5021427;28;20034;-72
2022/09/22 07:33:54;;;;;;;48.55;27.42;;;;;;;;;;5022555;28;20383;-73
2022/09/22 07:36:21;;;;;;;37.60;27.73;;;;;;;;;;5022372;28;20103;-73
2022/09/22 07:38:51;;;;;;;41.03;26.77;;;;;;;;;;5022380;28;20052;-71
2022/09/22 07:41:18;;;;;;;37.00;24.45;;;;;;;;;;5020480;28;20029;-71
2022/09/22 07:43:45;;;;;;;36.10;25.33;;;;;;;;;;5023245;28;20111;-70
2022/09/22 07:46:12;;;;;;;30.23;21.20;;;;;;;;;;5024455;28;20037;-71
2022/09/22 07:48:44;;;;;;;30.67;20.23;;;;;;;;;;5022199;28;20061;-71
2022/09/22 07:51:10;;;;;;;31.10;19.88;;;;;;;;;;5021145;28;20025;-72
2022/09/22 07:53:38;;;;;;;32.75;19.92;;;;;;;;;;5019773;28;20112;-71
2022/09/22 07:56:11;;;;;;;27.02;19.30;;;;;;;;;;5023034;28;20148;-71
2022/09/22 07:58:50;;;;;;;30.23;17.17;;;;;;;;;;5022099;28;20061;-71
2022/09/22 08:01:18;;;;;;;29.63;17.15;;;;;;;;;;5023369;28;20040;-71
2022/09/22 08:03:45;;;;;;;19.95;15.63;;;;;;;;;;5022273;28;20040;-71
2022/09/22 08:06:11;;;;;;;22.67;14.88;;;;;;;;;;5023505;28;20462;-71
2022/09/22 08:08:45;;;;;;;24.60;15.35;;;;;;;;;;5023666;28;20041;-72
2022/09/22 08:11:16;;;;;;;24.88;15.82;;;;;;;;;;5018121;28;20056;-71
2022/09/22 08:13:43;;;;;;;21.45;13.85;;;;;;;;;;5018510;28;20037;-71
2022/09/22 08:16:10;;;;;;;22.30;13.57;;;;;;;;;;5021130;28;20022;-71
2022/09/22 08:18:38;;;;;;;22.13;13.23;;;;;;;;;;5025163;28;20037;-71
2022/09/22 08:21:04;;;;;;;18.27;12.20;;;;;;;;;;5019960;28;20034;-71
2022/09/22 08:23:30;;;;;;;17.65;12.63;;;;;;;;;;5020898;28;20398;-71
2022/09/22 08:26:02;;;;;;;17.75;11.45;;;;;;;;;;5018655;28;20045;-70
2022/09/22 08:28:28;;;;;;;18.45;10.65;;;;;;;;;;5020341;28;20110;-70
2022/09/22 08:30:54;;;;;;;14.90;9.63;;;;;;;;;;5015952;28;20064;-70
2022/09/22 08:33:20;;;;;;;18.45;9.35;;;;;;;;;;5022030;28;20072;-71
2022/09/22 08:36:02;;;;;;;19.25;9.60;;;;;;;;;;5023472;28;20416;-71
2022/09/22 08:38:28;;;;;;;15.23;9.27;;;;;;;;;;5021559;28;20103;-71
2022/09/22 08:41:14;;;;;;;16.58;8.85;;;;;;;;;;5016090;28;20029;-71
2022/09/22 08:44:00;;;;;;;14.73;8.65;;;;;;;;;;4981229;28;20029;-70
2022/09/22 08:46:37;;;;;;;15.35;8.52;;;;;;;;;;4960408;28;20173;-71
2022/09/22 08:52:14;;;;;;;12.50;7.28;;;;;;;;;;4966834;28;20101;-71
2022/09/22 08:54:41;;;;;;;19.70;8.10;;;;;;;;;;4964907;28;20034;-71
2022/09/22 08:57:12;;;;;;;15.27;8.20;;;;;;;;;;4950321;28;20047;-73
2022/09/22 08:59:43;;;;;;;14.05;7.30;;;;;;;;;;4963508;28;20035;-71
2022/09/22 09:02:21;;;;;;;15.63;6.10;;;;;;;;;;4952710;28;20037;-71
2022/09/22 09:04:53;;;;;;;17.90;7.65;;;;;;;;;;4956741;28;20026;-72
2022/09/22 09:07:42;;;;;;;12.32;6.68;;;;;;;;;;4954964;28;20468;-71
2022/09/22 09:10:24;;;;;;;13.15;6.70;;;;;;;;;;4962254;28;20039;-71
2022/09/22 09:12:53;;;;;;;13.93;6.90;;;;;;;;;;4962781;28;20035;-71
2022/09/22 09:15:36;;;;;;;13.18;5.93;;;;;;;;;;4957911;28;20198;-71
2022/09/22 09:18:04;;;;;;;9.88;5.97;;;;;;;;;;4950024;28;20043;-71
2022/09/22 09:20:39;;;;;;;13.93;6.10;;;;;;;;;;4958921;28;20042;-72
2022/09/22 09:23:13;;;;;;;13.77;6.68;;;;;;;;;;4951532;28;20034;-70
2022/09/22 09:25:40;;;;;;;10.63;6.00;;;;;;;;;;4951920;28;20476;-71
2022/09/22 09:28:11;;;;;;;13.80;5.80;;;;;;;;;;4951764;28;20086;-71
2022/09/22 09:30:49;;;;;;;10.02;5.32;;;;;;;;;;4953346;28;20043;-71
2022/09/22 09:33:34;;;;;;;19.38;6.20;;;;;;;;;;4951429;28;20109;-71
2022/09/22 09:36:01;;;;;;;12.43;5.07;;;;;;;;;;4971468;28;20026;-71
2022/09/22 09:38:29;;;;;;;13.70;5.43;;;;;;;;;;4964786;28;20574;-71
2022/09/22 09:40:59;;;;;;;37.50;8.07;;;;;;;;;;4957447;28;20415;-71
2022/09/22 09:43:27;;;;;;;12.63;5.15;;;;;;;;;;4969711;28;20490;-71
2022/09/22 09:45:55;;;;;;;10.25;4.55;;;;;;;;;;4959003;28;20062;-71
2022/09/22 09:48:30;;;;;;;9.40;4.57;;;;;;;;;;4956059;28;20856;-71
2022/09/22 09:51:01;;;;;;;8.50;5.03;;;;;;;;;;4954586;28;20039;-72
2022/09/22 09:53:27;;;;;;;;;;;;;;;;;;4971320;28;20615;-71
2022/09/22 09:55:53;;;;;;;12.95;4.25;;;;;;;;;;4953350;28;20021;-71
2022/09/22 10:01:12;;;;;;;7.82;4.53;;;;;;;;;;4966391;28;20042;-72
2022/09/22 10:03:53;;;;;;;16.63;5.20;;;;;;;;;;4955818;28;20066;-71
2022/09/22 10:06:24;;;;;;;7.93;4.03;;;;;;;;;;4960001;28;20555;-71
2022/09/22 10:08:50;;;;;;;;;;;;;;;;;;4964182;28;20121;-71
2022/09/22 10:11:27;;;;;;;9.70;4.30;;;;;;;;;;4961766;28;19948;-71
2022/09/22 10:13:55;;;;;;;9.95;4.43;;;;;;;;;;4971691;28;20756;-71
2022/09/22 10:16:23;;;;;;;12.85;4.07;;;;;;;;;;4962205;28;20031;-70
2022/09/22 10:19:12;;;;;;;8.30;4.03;;;;;;;;;;4953007;28;20138;-71
2022/09/22 10:21:38;;;;;;;11.25;4.43;;;;;;;;;;4958967;28;20117;-71
2022/09/22 10:24:21;;;;;;;11.95;4.82;;;;;;;;;;4955285;28;20484;-71
2022/09/22 10:26:56;;;;;;;13.65;4.63;;;;;;;;;;4953065;28;20035;-71
2022/09/22 10:29:23;;;;;;;8.95;4.80;;;;;;;;;;4956987;28;20415;-71
2022/09/22 10:32:13;;;;;;;8.57;4.78;;;;;;;;;;4953282;28;20034;-72
2022/09/22 10:34:47;;;;;;;7.45;4.80;;;;;;;;;;4968971;28;20054;-72
2022/09/22 10:37:15;;;;;;;10.30;4.72;;;;;;;;;;4955875;28;20023;-72
2022/09/22 10:39:47;;;;;;;12.43;5.05;;;;;;;;;;4969482;28;20125;-71
2022/09/22 10:42:19;;;;;;;9.50;5.05;;;;;;;;;;4975271;28;20034;-71
2022/09/22 10:44:45;;;;;;;9.50;5.13;;;;;;;;;;4967468;28;20035;-71
2022/09/22 10:47:20;;;;;;;9.65;4.93;;;;;;;;;;4972623;28;20121;-71
2022/09/22 10:49:46;;;;;;;6.18;4.70;;;;;;;;;;4972217;28;20419;-72
2022/09/22 10:52:12;;;;;;;8.90;5.47;;;;;;;;;;4964157;28;20478;-71
2022/09/22 10:54:40;;;;;;;11.70;5.75;;;;;;;;;;4969324;28;20030;-72
2022/09/22 10:57:11;;;;;;;10.68;5.90;;;;;;;;;;4971607;28;20053;-71
2022/09/22 10:59:41;;;;;;;10.77;6.20;;;;;;;;;;4964616;28;20125;-71
2022/09/22 11:02:17;;;;;;;14.15;5.45;;;;;;;;;;4974272;28;20035;-71
2022/09/22 11:04:43;;;;;;;18.33;6.57;;;;;;;;;;4961504;28;20045;-71
2022/09/22 11:13:10;;;;;;;10.88;5.70;;;;;;;;;;4964706;28;20512;-73
2022/09/22 11:15:44;;;;;;;12.05;6.70;;;;;;;;;;4969231;28;20045;-70
2022/09/22 11:18:10;;;;;;;8.98;5.78;;;;;;;;;;4968151;28;20039;-72
2022/09/22 11:20:38;;;;;;;10.02;4.03;;;;;;;;;;4953980;28;20488;-70
2022/09/22 11:23:23;;;;;;;8.07;3.40;;;;;;;;;;4957225;28;20053;-70
2022/09/22 11:25:54;;;;;;;4.80;3.35;;;;;;;;;;4951934;28;20285;-70
2022/09/22 11:28:33;;;;;;;6.03;3.60;;;;;;;;;;4951364;28;20117;-70
2022/09/22 11:30:59;;;;;;;6.85;3.67;;;;;;;;;;4952238;28;20568;-71
2022/09/22 11:33:35;;;;;;;6.03;3.58;;;;;;;;;;4952624;28;20093;-70
2022/09/22 11:36:01;;;;;;;8.02;3.65;;;;;;;;;;4964602;28;20030;-70
2022/09/22 11:38:30;;;;;;;6.03;3.13;;;;;;;;;;4964671;28;20928;-70
2022/09/22 11:41:02;;;;;;;8.10;3.42;;;;;;;;;;4963123;28;20306;-70
2022/09/22 11:43:31;;;;;;;9.82;3.88;;;;;;;;;;4965149;28;20035;-70
2022/09/22 11:46:10;;;;;;;9.80;3.28;;;;;;;;;;4952466;28;20177;-70
2022/09/22 11:48:39;;;;;;;9.15;4.05;;;;;;;;;;4950235;28;20468;-70
2022/09/22 11:51:07;;;;;;;7.25;3.78;;;;;;;;;;4959769;28;20061;-70
2022/09/22 11:53:37;;;;;;;8.90;3.65;;;;;;;;;;4952791;28;20050;-70
2022/09/22 11:56:05;;;;;;;7.60;4.07;;;;;;;;;;4956766;28;20861;-70
2022/09/22 11:58:31;;;;;;;10.50;4.68;;;;;;;;;;4952443;28;20110;-70
2022/09/22 12:01:02;;;;;;;6.53;3.50;;;;;;;;;;4956860;28;20042;-70
2022/09/22 12:03:43;;;;;;;7.75;3.33;;;;;;;;;;4958224;28;20026;-74
2022/09/22 12:06:11;;;;;;;5.18;1.83;;;;;;;;;;4975642;28;20030;-70
2022/09/22 12:08:42;;;;;;;5.68;1.60;;;;;;;;;;4972821;28;20114;-70
2022/09/22 12:11:12;;;;;;;3.30;1.60;;;;;;;;;;4967481;28;20026;-70
2022/09/22 12:13:41;;;;;;;4.63;1.33;;;;;;;;;;4971014;28;20027;-70
2022/09/22 12:16:33;;;;;;;5.68;1.88;;;;;;;;;;4978984;28;20026;-70
2022/09/22 12:19:17;;;;;;;14.68;2.15;;;;;;;;;;4955033;28;20038;-70
2022/09/22 12:22:04;;;;;;;7.18;1.88;;;;;;;;;;4959130;28;20117;-71
2022/09/22 12:24:30;;;;;;;6.47;1.88;;;;;;;;;;4960364;28;20477;-70
2022/09/22 12:26:57;;;;;;;7.32;2.13;;;;;;;;;;4969335;28;20049;-71
2022/09/22 12:29:26;;;;;;;6.22;1.90;;;;;;;;;;4952656;28;20149;-71
2022/09/22 12:31:54;;;;;;;67.35;5.43;;;;;;;;;;4950841;28;20657;-70
2022/09/22 12:34:21;;;;;;;7.57;1.98;;;;;;;;;;4962245;28;21058;-71
2022/09/22 12:36:50;;;;;;;5.28;1.67;;;;;;;;;;4965726;28;20035;-71
2022/09/22 12:39:18;;;;;;;4.22;1.60;;;;;;;;;;4963646;28;20034;-70
2022/09/22 12:42:05;;;;;;;6.03;2.00;;;;;;;;;;4962204;28;20061;-71
2022/09/22 12:44:33;;;;;;;4.00;1.77;;;;;;;;;;4962080;28;20058;-71
2022/09/22 12:47:01;;;;;;;4.55;2.17;;;;;;;;;;4967547;28;20105;-71
2022/09/22 12:49:27;;;;;;;6.47;2.33;;;;;;;;;;4963204;28;20433;-71
2022/09/22 12:51:53;;;;;;;8.70;2.00;;;;;;;;;;4962078;28;20043;-71
2022/09/22 12:54:22;;;;;;;4.82;2.03;;;;;;;;;;4957581;28;20031;-71
2022/09/22 12:56:58;;;;;;;7.90;2.30;;;;;;;;;;4957819;28;20110;-71
2022/09/22 12:59:37;;;;;;;4.95;2.00;;;;;;;;;;4961974;28;20030;-71
2022/09/22 13:02:14;;;;;;;5.32;2.30;;;;;;;;;;4955781;28;20237;-70
2022/09/22 13:04:40;;;;;;;6.00;2.15;;;;;;;;;;4956547;28;20035;-70
2022/09/22 13:07:25;;;;;;;10.57;4.03;;;;;;;;;;4956588;28;20133;-72
2022/09/22 13:10:11;;;;;;;14.25;3.00;;;;;;;;;;4955494;28;20045;-71
2022/09/22 13:12:37;;;;;;;10.35;2.60;;;;;;;;;;4958819;28;20038;-70
2022/09/22 13:15:06;;;;;;;5.97;2.20;;;;;;;;;;4962766;28;20043;-72
2022/09/22 13:17:40;;;;;;;5.78;2.45;;;;;;;;;;4967029;28;20045;-70
2022/09/22 13:20:32;;;;;;;7.53;1.80;;;;;;;;;;4956311;28;20090;-70
2022/09/22 13:23:25;;;;;;;4.40;1.50;;;;;;;;;;4959310;28;20504;-70
2022/09/22 13:25:51;;;;;;;7.47;1.55;;;;;;;;;;4957704;28;20039;-70
2022/09/22 13:28:17;;;;;;;8.90;1.88;;;;;;;;;;4962813;28;20065;-71
2022/09/22 13:30:44;;;;;;;3.22;1.98;;;;;;;;;;4959361;28;20039;-70
2022/09/22 13:33:36;;;;;;;6.55;1.85;;;;;;;;;;4957117;28;20170;-70
2022/09/22 13:36:11;;;;;;;4.82;1.67;;;;;;;;;;4961920;28;20050;-70
2022/09/22 13:38:42;;;;;;;5.15;1.73;;;;;;;;;;4959045;28;20066;-70
2022/09/22 13:41:08;;;;;;;;;;;;;;;;;;4959077;28;20030;-70
2022/09/22 13:43:36;;;;;;;5.32;1.42;;;;;;;;;;4959585;28;19910;-71
2022/09/22 13:46:03;;;;;;;5.30;1.85;;;;;;;;;;4963437;28;20503;-70
2022/09/22 13:48:31;;;;;;;5.13;1.60;;;;;;;;;;4960448;28;20042;-71
2022/09/22 13:51:03;;;;;;;5.30;1.95;;;;;;;;;;4963453;28;20225;-70
2022/09/22 13:53:29;;;;;;;5.38;1.90;;;;;;;;;;4966491;28;20234;-72
2022/09/22 13:55:56;;;;;;;3.70;1.65;;;;;;;;;;4964437;28;20033;-70
2022/09/22 13:58:28;;;;;;;4.15;2.10;;;;;;;;;;4969174;28;20110;-70
2022/09/22 14:00:58;;;;;;;6.95;2.45;;;;;;;;;;4965100;28;20061;-70
2022/09/22 14:03:25;;;;;;;6.25;1.75;;;;;;;;;;4964424;28;20075;-70
2022/09/22 14:05:51;;;;;;;4.65;2.35;;;;;;;;;;4963011;28;20077;-70
2022/09/22 14:08:19;;;;;;;5.97;2.42;;;;;;;;;;4967377;28;20030;-70
2022/09/22 14:10:46;;;;;;;5.82;2.08;;;;;;;;;;4964180;28;20058;-70
2022/09/22 14:13:31;;;;;;;5.40;2.40;;;;;;;;;;4962497;28;20022;-70
2022/09/22 14:15:57;;;;;;;7.30;2.33;;;;;;;;;;4965603;28;20041;-70
2022/09/22 14:18:25;;;;;;;7.03;2.60;;;;;;;;;;4964843;28;20587;-70
2022/09/22 14:20:54;;;;;;;11.25;3.05;;;;;;;;;;4964228;28;20039;-70
2022/09/22 14:23:30;;;;;;;6.32;2.50;;;;;;;;;;4965490;28;20051;-70
2022/09/22 14:25:57;;;;;;;6.32;2.60;;;;;;;;;;4966136;28;20153;-71
2022/09/22 14:28:28;;;;;;;4.85;2.67;;;;;;;;;;4962885;28;20027;-71
2022/09/22 14:30:54;;;;;;;10.63;3.13;;;;;;;;;;4965982;28;20084;-70
2022/09/22 14:33:23;;;;;;;6.68;2.90;;;;;;;;;;4963502;28;20030;-71
2022/09/22 14:35:51;;;;;;;8.30;3.20;;;;;;;;;;4967186;28;20034;-71
2022/09/22 14:38:18;;;;;;;6.55;2.67;;;;;;;;;;4965312;28;20035;-71
2022/09/22 14:40:55;;;;;;;6.47;2.80;;;;;;;;;;4966426;28;20059;-71
2022/09/22 14:43:26;;;;;;;5.60;2.50;;;;;;;;;;4961182;28;20043;-71
2022/09/22 14:45:59;;;;;;;6.20;2.70;;;;;;;;;;4966852;28;20049;-71
2022/09/22 14:48:28;;;;;;;5.68;2.63;;;;;;;;;;4965111;28;20185;-71
2022/09/22 14:50:57;;;;;;;7.45;2.97;;;;;;;;;;4966144;28;20105;-71
2022/09/22 14:53:37;;;;;;;9.13;2.97;;;;;;;;;;4966718;28;20034;-71